Bellingham, Washington
Current Conditions -  °F | °C
As of 5:53 AM on Saturday 22 Nov 2014 (Local Time) from KBLI Reporting Station
Light Rain Light Rain  
Wind Chill: 41°   Ceiling: 7000
Heat Index: 46°   Visibility: 10mi
Dew Point: 41°   Wind: 9mph
Humidity: 83%   Direction: 170°S
Pressure: 29.63"   Gusts: NA
Location:  48.75°N, 122.47°W
Report Text: KBLI 221353Z AUTO 17008KT 10SM -RA SCT050 OVC070 08/05 A2963 RMK AO2 RAB09 SLP040 P0000 T00780050
Loading
Personal Weather Stations






























Interactive Weather Map New forecast layout! Learn more

10-Day Weather Forecast

Advertisements
Track Severe Weather on mobile